Angelica, Wisconsin
Current Conditions -  °F | °C
As of 6:53 PM on Thursday 18 Dec 2014 (Local Time) from KGRB Reporting Station
Clear Clear  
Wind Chill: -6°   Ceiling: Unl
Heat Index: -6°   Visibility: 10mi
Dew Point: -7°   Wind: 0mph
Humidity: 89%   Direction: NA
Pressure: 30.26"   Gusts: NA
Location:  44.6594°N, 88.2945°W
Report Text: KGRB 190053Z 00000KT 10SM CLR M06/M07 A3026 RMK AO2 SLP259 T10561072
Loading
Personal Weather Stations






























Interactive Weather Map New forecast layout! Learn more

10-Day Weather Forecast

Advertisements
Track Severe Weather on mobile